createdAt,value
2018-03-20T00:01:12.684Z,100202.39
2018-03-20T00:03:40.474Z,100201.92
2018-03-20T00:06:08.236Z,100203.13
2018-03-20T00:08:36.614Z,100207.56
2018-03-20T00:11:04.325Z,100206.87
2018-03-20T00:13:32.042Z,100199.61
2018-03-20T00:15:59.810Z,100210.51
2018-03-20T00:18:27.674Z,100202.25
2018-03-20T00:20:55.436Z,100201.83
2018-03-20T00:23:23.201Z,100200.46
2018-03-20T00:25:51.066Z,100208.23
2018-03-20T00:28:18.939Z,100210.69
2018-03-20T00:30:46.806Z,100212.72
2018-03-20T00:33:14.671Z,100213.44
2018-03-20T00:35:42.537Z,100218.36
2018-03-20T00:38:10.204Z,100212.08
2018-03-20T00:40:38.064Z,100218.08
2018-03-20T00:43:05.826Z,100218.41
2018-03-20T00:45:33.659Z,100221.17
2018-03-20T00:48:01.374Z,100219.25
2018-03-20T00:50:29.112Z,100219.28
2018-03-20T00:52:56.885Z,100224.86
2018-03-20T00:55:24.751Z,100222.34
2018-03-20T00:57:52.516Z,100221.23
2018-03-20T01:00:20.282Z,100228.76
2018-03-20T01:02:48.012Z,100231.59
2018-03-20T01:05:15.815Z,100222.23
2018-03-20T01:07:43.674Z,100217.61
2018-03-20T01:10:11.532Z,100224.42
2018-03-20T01:12:39.207Z,100221.73
2018-03-20T01:15:06.912Z,100214.07
2018-03-20T01:17:34.782Z,100205.34
2018-03-20T01:20:02.499Z,100210.45
2018-03-20T01:22:30.272Z,100206.23
2018-03-20T01:24:58.026Z,100203.36
2018-03-20T01:27:25.894Z,100207.22
2018-03-20T01:29:53.608Z,100211.89
2018-03-20T01:32:21.420Z,100209.94
2018-03-20T01:34:49.184Z,100215.33
2018-03-20T01:37:16.905Z,100213.39
2018-03-20T01:39:44.714Z,100210.98
2018-03-20T01:42:12.583Z,100208.41
2018-03-20T01:44:40.244Z,100207.70
2018-03-20T01:47:08.110Z,100207.84
2018-03-20T01:49:35.873Z,100208.16
2018-03-20T01:52:03.845Z,100209.09
2018-03-20T01:54:31.713Z,100208.75
2018-03-20T01:56:59.457Z,100202.03
2018-03-20T01:59:27.341Z,100208.72
2018-03-20T02:01:55.064Z,100201.02
2018-03-20T02:04:22.870Z,100208.23
2018-03-20T02:06:50.636Z,100204.20
2018-03-20T02:09:18.461Z,100201.25
2018-03-20T02:11:46.199Z,100196.58
2018-03-20T02:14:14.080Z,100203.80
2018-03-20T02:16:41.783Z,100195.08
2018-03-20T02:19:09.558Z,100200.70
2018-03-20T02:21:37.211Z,100200.61
2018-03-20T02:24:05.080Z,100195.33
2018-03-20T02:26:32.851Z,100194.45
2018-03-20T02:29:00.733Z,100199.00
2018-03-20T02:31:28.584Z,100201.23
2018-03-20T02:33:56.452Z,100201.11
2018-03-20T02:36:24.333Z,100206.66
2018-03-20T02:38:52.091Z,100205.31
2018-03-20T02:41:19.848Z,100213.36
2018-03-20T02:43:47.612Z,100212.48
2018-03-20T02:46:22.585Z,100218.66
2018-03-20T02:48:50.310Z,100214.88
2018-03-20T02:51:18.070Z,100224.08
2018-03-20T02:53:45.843Z,100226.25
2018-03-20T02:56:13.703Z,100226.89
2018-03-20T02:58:41.467Z,100228.84
2018-03-20T03:01:09.335Z,100230.27
2018-03-20T03:03:37.098Z,100224.19
2018-03-20T03:06:04.966Z,100223.70
2018-03-20T03:08:32.735Z,100233.17
2018-03-20T03:11:00.492Z,100238.24
2018-03-20T03:13:28.223Z,100237.61
2018-03-20T03:15:56.130Z,100235.00
2018-03-20T03:18:24.078Z,100234.44
2018-03-20T03:20:51.860Z,100242.15
2018-03-20T03:23:19.631Z,100237.92
2018-03-20T03:25:47.490Z,100247.69
2018-03-20T03:28:15.201Z,100252.06
2018-03-20T03:30:43.023Z,100251.30
2018-03-20T03:33:10.679Z,100249.01
2018-03-20T03:35:38.554Z,100247.26
2018-03-20T03:38:06.311Z,100248.32
2018-03-20T03:40:34.073Z,100249.17
2018-03-20T03:43:05.619Z,100250.87
2018-03-20T03:45:33.395Z,100249.76
2018-03-20T03:48:01.119Z,100257.73
2018-03-20T03:50:28.885Z,100257.20
2018-03-20T03:52:56.630Z,100265.05
2018-03-20T03:55:24.452Z,100261.58
2018-03-20T03:57:52.209Z,100254.06
2018-03-20T04:00:19.980Z,100253.55
2018-03-20T04:02:47.744Z,100258.56
2018-03-20T04:05:15.408Z,100264.94
2018-03-20T04:07:43.278Z,100264.61
2018-03-20T04:10:10.989Z,100274.64
2018-03-20T04:12:38.761Z,100266.39
2018-03-20T04:15:06.464Z,100270.62
2018-03-20T04:17:34.227Z,100267.66
2018-03-20T04:20:01.952Z,100267.97
2018-03-20T04:22:29.716Z,100275.98
2018-03-20T04:24:57.521Z,100275.33
2018-03-20T04:27:25.387Z,100273.36
2018-03-20T04:29:53.046Z,100279.23
2018-03-20T04:32:20.854Z,100278.59
2018-03-20T04:34:48.670Z,100281.39
2018-03-20T04:37:16.346Z,100280.73
2018-03-20T04:39:44.315Z,100268.61
2018-03-20T04:42:12.185Z,100282.45
2018-03-20T04:44:40.106Z,100281.13
2018-03-20T04:47:07.915Z,100287.42
2018-03-20T04:49:35.740Z,100289.08
2018-03-20T04:52:03.511Z,100286.80
2018-03-20T04:54:31.308Z,100291.70
2018-03-20T04:56:59.174Z,100289.53
2018-03-20T04:59:27.039Z,100297.30
2018-03-20T05:01:54.745Z,100289.98
2018-03-20T05:04:22.568Z,100291.81
2018-03-20T05:06:50.333Z,100283.65
2018-03-20T05:09:18.097Z,100287.08
2018-03-20T05:11:45.753Z,100289.20
2018-03-20T05:14:13.627Z,100294.61
2018-03-20T05:16:41.388Z,100286.84
2018-03-20T05:22:19.644Z,100289.34
2018-03-20T05:24:47.487Z,100293.98
2018-03-20T05:27:15.354Z,100304.45
2018-03-20T05:29:43.192Z,100308.52
2018-03-20T05:32:10.893Z,100311.29
2018-03-20T05:34:38.852Z,100314.28
2018-03-20T05:37:06.718Z,100314.34
2018-03-20T05:39:34.485Z,100314.16
2018-03-20T05:42:02.356Z,100319.83
2018-03-20T05:44:30.116Z,100317.64
2018-03-20T05:50:09.777Z,100321.56
2018-03-20T05:52:37.644Z,100321.77
2018-03-20T05:55:05.485Z,100324.89
2018-03-20T05:57:33.228Z,100329.73
2018-03-20T06:00:01.142Z,100326.82
2018-03-20T06:02:28.907Z,100331.75
2018-03-20T06:04:56.879Z,100321.39
2018-03-20T06:07:24.849Z,100320.11
2018-03-20T06:09:52.716Z,100332.48
2018-03-20T06:12:20.473Z,100320.28
2018-03-20T06:14:48.239Z,100321.77
2018-03-20T06:17:16.108Z,100326.64
2018-03-20T06:19:43.770Z,100341.86
2018-03-20T06:22:11.588Z,100340.75
2018-03-20T06:24:39.308Z,100339.34
2018-03-20T06:27:07.121Z,100334.56
2018-03-20T06:29:34.983Z,100340.78
2018-03-20T06:32:02.799Z,100339.38
2018-03-20T06:34:30.515Z,100347.60
2018-03-20T06:36:58.427Z,100345.59
2018-03-20T06:39:26.191Z,100358.30
2018-03-20T06:41:54.062Z,100347.77
2018-03-20T06:44:21.958Z,100340.27
2018-03-20T06:46:49.896Z,100342.77
2018-03-20T06:49:17.617Z,100341.92
2018-03-20T06:51:45.422Z,100360.28
2018-03-20T06:54:13.186Z,100367.14
2018-03-20T06:56:41.054Z,100360.66
2018-03-20T06:59:08.817Z,100358.84
2018-03-20T07:01:36.645Z,100367.41
2018-03-20T07:04:04.405Z,100370.31
2018-03-20T07:06:32.213Z,100362.11
2018-03-20T07:08:59.945Z,100356.30
2018-03-20T07:11:27.704Z,100357.94
2018-03-20T07:13:55.451Z,100367.45
2018-03-20T07:16:23.271Z,100378.56
2018-03-20T07:18:51.035Z,100380.91
2018-03-20T07:21:18.802Z,100375.38
2018-03-20T07:23:46.665Z,100371.26
2018-03-20T07:26:14.430Z,100371.91
2018-03-20T07:28:42.196Z,100371.52
2018-03-20T07:31:09.911Z,100368.65
2018-03-20T07:33:37.723Z,100367.41
2018-03-20T07:36:05.694Z,100358.53
2018-03-20T07:38:33.562Z,100370.86
2018-03-20T07:41:01.275Z,100363.20
2018-03-20T07:43:29.089Z,100361.89
2018-03-20T07:45:56.760Z,100372.78
2018-03-20T07:48:24.515Z,100365.99
2018-03-20T07:50:52.278Z,100370.31
2018-03-20T07:53:20.146Z,100373.56
2018-03-20T07:55:47.808Z,100374.91
2018-03-20T07:58:15.469Z,100368.81
2018-03-20T08:00:43.131Z,100367.34
2018-03-20T08:03:10.791Z,100366.58
2018-03-20T08:05:38.562Z,100370.35
2018-03-20T08:08:06.324Z,100373.08
2018-03-20T08:10:34.089Z,100378.88
2018-03-20T08:13:01.750Z,100376.05
2018-03-20T08:15:29.615Z,100384.86
2018-03-20T08:17:57.379Z,100375.92
2018-03-20T08:20:25.144Z,100381.39
2018-03-20T08:22:52.909Z,100385.60
2018-03-20T08:25:20.776Z,100394.00
2018-03-20T08:27:48.540Z,100392.69
2018-03-20T08:30:16.305Z,100391.08
2018-03-20T08:32:44.058Z,100390.02
2018-03-20T08:35:11.833Z,100399.99
2018-03-20T08:37:39.597Z,100394.23
2018-03-20T08:40:07.464Z,100398.40
2018-03-20T08:42:35.228Z,100404.09
2018-03-20T08:45:02.995Z,100401.62
2018-03-20T08:47:30.767Z,100398.53
2018-03-20T08:49:58.562Z,100398.30
2018-03-20T08:52:26.388Z,100398.55
2018-03-20T08:54:54.356Z,100402.02
2018-03-20T08:57:22.229Z,100403.36
2018-03-20T08:59:49.999Z,100409.64
2018-03-20T09:02:17.852Z,100404.70
2018-03-20T09:04:45.620Z,100411.70
2018-03-20T09:07:13.490Z,100410.59
2018-03-20T09:09:41.146Z,100416.75
2018-03-20T09:12:10.205Z,100415.33
2018-03-20T09:14:37.961Z,100426.89
2018-03-20T09:17:05.772Z,100430.82
2018-03-20T09:19:33.536Z,100418.14
2018-03-20T09:22:01.511Z,100432.53
2018-03-20T09:24:29.229Z,100428.94
2018-03-20T09:26:57.137Z,100433.88
2018-03-20T09:29:24.902Z,100426.55
2018-03-20T09:31:52.768Z,100429.29
2018-03-20T09:34:20.494Z,100420.59
2018-03-20T09:36:48.252Z,100426.13
2018-03-20T09:39:16.061Z,100432.70
2018-03-20T09:41:43.826Z,100427.04
2018-03-20T09:44:11.693Z,100432.51
2018-03-20T09:46:39.462Z,100447.86
2018-03-20T09:49:07.364Z,100445.59
2018-03-20T09:51:35.190Z,100450.66
2018-03-20T09:54:03.025Z,100452.38
2018-03-20T09:56:30.784Z,100452.17
2018-03-20T09:58:58.685Z,100451.69
2018-03-20T10:01:26.452Z,100457.55
2018-03-20T10:03:54.116Z,100462.84
2018-03-20T10:06:21.775Z,100474.11
2018-03-20T10:08:49.747Z,100487.39
2018-03-20T10:11:17.523Z,100480.70
2018-03-20T10:13:45.383Z,100496.64
2018-03-20T10:16:13.140Z,100506.08
2018-03-20T10:18:41.626Z,100499.73
2018-03-20T10:21:09.355Z,100502.33
2018-03-20T10:23:37.089Z,100500.39
2018-03-20T10:26:04.886Z,100513.92
2018-03-20T10:28:32.680Z,100508.41
2018-03-20T10:31:00.444Z,100503.87
2018-03-20T10:33:28.311Z,100501.56
2018-03-20T10:35:56.081Z,100514.48
2018-03-20T10:38:24.046Z,100515.90
2018-03-20T10:40:51.809Z,100509.73
2018-03-20T10:43:19.573Z,100516.42
2018-03-20T10:45:47.441Z,100511.22
2018-03-20T10:48:15.276Z,100527.44
2018-03-20T10:50:43.072Z,100521.05
2018-03-20T10:53:10.835Z,100518.25
2018-03-20T10:55:38.852Z,100519.62
2018-03-20T10:58:06.630Z,100520.62
2018-03-20T11:03:43.277Z,100517.61
2018-03-20T11:06:10.944Z,100520.75
2018-03-20T11:08:38.571Z,100524.08
2018-03-20T11:11:06.319Z,100531.23
2018-03-20T11:13:34.068Z,100533.14
2018-03-20T11:16:01.879Z,100534.03
2018-03-20T11:18:29.594Z,100528.23
2018-03-20T11:20:57.409Z,100536.23
2018-03-20T11:23:25.230Z,100544.39
2018-03-20T11:25:53.152Z,100548.76
2018-03-20T11:28:20.859Z,100550.43
2018-03-20T11:30:48.672Z,100550.99
2018-03-20T11:33:16.441Z,100545.59
2018-03-20T11:35:44.265Z,100552.52
2018-03-20T11:38:12.067Z,100545.05
2018-03-20T11:40:39.922Z,100537.30
2018-03-20T11:43:07.656Z,100547.95
2018-03-20T11:45:35.462Z,100554.60
2018-03-20T11:48:03.290Z,100550.11
2018-03-20T11:50:31.093Z,100562.90
2018-03-20T11:52:58.822Z,100548.84
2018-03-20T11:55:26.621Z,100557.83
2018-03-20T11:57:54.487Z,100567.01
2018-03-20T12:00:22.152Z,100563.80
2018-03-20T12:02:49.918Z,100570.29
2018-03-20T12:05:17.679Z,100578.14
2018-03-20T12:07:55.380Z,100578.84
2018-03-20T12:10:23.166Z,100582.80
2018-03-20T12:12:51.111Z,100584.36
2018-03-20T12:15:18.852Z,100590.16
2018-03-20T12:17:46.535Z,100590.13
2018-03-20T12:20:14.301Z,100593.77
2018-03-20T12:22:42.170Z,100606.25
2018-03-20T12:25:09.842Z,100600.61
2018-03-20T12:27:37.725Z,100599.02
2018-03-20T12:30:05.461Z,100602.95
2018-03-20T12:32:33.090Z,100608.35
2018-03-20T12:35:00.751Z,100605.02
2018-03-20T12:37:28.378Z,100608.59
2018-03-20T12:39:56.042Z,100602.97
2018-03-20T12:42:23.690Z,100606.82
2018-03-20T12:44:51.341Z,100603.30
2018-03-20T12:47:18.970Z,100604.48
2018-03-20T12:49:46.632Z,100612.98
2018-03-20T12:52:14.251Z,100609.55
2018-03-20T12:54:41.904Z,100622.88
2018-03-20T12:57:09.525Z,100616.50
2018-03-20T12:59:37.187Z,100612.92
2018-03-20T13:02:04.812Z,100625.24
2018-03-20T13:04:32.494Z,100622.83
2018-03-20T13:07:00.110Z,100617.11
2018-03-20T13:09:27.789Z,100621.86
2018-03-20T13:11:55.396Z,100630.34
2018-03-20T13:14:23.060Z,100628.45
2018-03-20T13:16:50.671Z,100626.48
2018-03-20T13:19:18.354Z,100630.52
2018-03-20T13:21:45.999Z,100634.30
2018-03-20T13:24:13.612Z,100647.70
2018-03-20T13:26:41.496Z,100645.98
2018-03-20T13:29:09.349Z,100649.53
2018-03-20T13:31:37.074Z,100648.78
2018-03-20T13:34:04.774Z,100645.06
2018-03-20T13:36:32.556Z,100646.20
2018-03-20T13:39:00.304Z,100649.77
2018-03-20T13:41:28.168Z,100648.33
2018-03-20T13:43:55.935Z,100655.52
2018-03-20T13:46:23.768Z,100646.24
2018-03-20T13:48:51.509Z,100649.92
2018-03-20T13:51:19.327Z,100650.67
2018-03-20T13:53:47.100Z,100651.47
2018-03-20T13:56:15.168Z,100662.10
2018-03-20T13:58:42.942Z,100654.10
2018-03-20T14:01:11.004Z,100655.84
2018-03-20T14:03:38.657Z,100655.70
2018-03-20T14:06:06.531Z,100656.05
2018-03-20T14:08:34.294Z,100657.48
2018-03-20T14:11:02.161Z,100656.05
2018-03-20T14:13:29.880Z,100659.04
2018-03-20T14:15:57.692Z,100651.51
2018-03-20T14:18:25.460Z,100656.23
2018-03-20T14:20:53.218Z,100655.40
2018-03-20T14:23:21.131Z,100660.42
2018-03-20T14:25:48.953Z,100653.17
2018-03-20T14:28:16.819Z,100662.11
2018-03-20T14:30:44.620Z,100661.00
2018-03-20T14:33:12.451Z,100652.77
2018-03-20T14:35:40.227Z,100658.00
2018-03-20T14:38:07.896Z,100666.04
2018-03-20T14:40:35.521Z,100661.71
2018-03-20T14:43:03.188Z,100662.77
2018-03-20T14:45:30.804Z,100671.84
2018-03-20T14:47:58.458Z,100677.62
2018-03-20T14:50:26.078Z,100675.46
2018-03-20T14:52:53.785Z,100683.77
2018-03-20T14:55:21.441Z,100684.75
2018-03-20T14:57:49.101Z,100688.46
2018-03-20T15:00:16.737Z,100689.70
2018-03-20T15:02:44.456Z,100690.00
2018-03-20T15:05:12.069Z,100695.98
2018-03-20T15:07:39.725Z,100694.11
2018-03-20T15:10:07.342Z,100694.37
2018-03-20T15:12:35.015Z,100700.36
2018-03-20T15:15:02.664Z,100698.76
2018-03-20T15:17:30.463Z,100699.84
2018-03-20T15:19:58.259Z,100700.19
2018-03-20T15:22:25.897Z,100704.52
2018-03-20T15:24:53.797Z,100706.26
2018-03-20T15:27:21.426Z,100714.66
2018-03-20T15:29:49.199Z,100715.63
2018-03-20T15:32:16.853Z,100721.63
2018-03-20T15:34:44.613Z,100728.17
2018-03-20T15:37:12.384Z,100732.63
2018-03-20T15:39:40.033Z,100727.23
2018-03-20T15:42:07.762Z,100731.72
2018-03-20T15:44:35.526Z,100742.52
2018-03-20T15:47:03.334Z,100752.18
2018-03-20T15:49:31.199Z,100747.56
2018-03-20T15:51:58.964Z,100753.67
2018-03-20T15:54:26.724Z,100756.72
2018-03-20T15:56:54.800Z,100756.80
2018-03-20T15:59:22.564Z,100762.17
2018-03-20T16:01:50.295Z,100760.62
2018-03-20T16:04:17.997Z,100766.63
2018-03-20T16:06:45.823Z,100775.16
2018-03-20T16:09:13.682Z,100778.20
2018-03-20T16:11:41.294Z,100780.59
2018-03-20T16:14:09.054Z,100793.03
2018-03-20T16:16:36.815Z,100798.12
2018-03-20T16:19:04.527Z,100801.90
2018-03-20T16:21:32.247Z,100802.37
2018-03-20T16:24:00.003Z,100812.59
2018-03-20T16:26:27.870Z,100814.47
2018-03-20T16:28:55.638Z,100806.41
2018-03-20T16:31:23.419Z,100816.14
2018-03-20T16:33:51.029Z,100823.77
2018-03-20T16:36:18.828Z,100829.84
2018-03-20T16:38:46.536Z,100825.33
2018-03-20T16:41:14.298Z,100822.20
2018-03-20T16:43:42.119Z,100825.01
2018-03-20T16:46:09.985Z,100831.67
2018-03-20T16:48:37.853Z,100835.34
2018-03-20T16:51:05.720Z,100838.44
2018-03-20T16:53:33.473Z,100838.16
2018-03-20T16:56:01.172Z,100846.39
2018-03-20T16:58:28.910Z,100849.33
2018-03-20T17:00:56.781Z,100855.35
2018-03-20T17:03:24.446Z,100866.39
2018-03-20T17:05:52.084Z,100866.73
2018-03-20T17:08:19.777Z,100870.44
2018-03-20T17:10:47.385Z,100873.83
2018-03-20T17:13:15.061Z,100879.52
2018-03-20T17:15:42.800Z,100888.52
2018-03-20T17:18:10.619Z,100889.73
2018-03-20T17:20:38.345Z,100893.95
2018-03-20T17:23:06.252Z,100897.31
2018-03-20T17:25:34.012Z,100901.77
2018-03-20T17:28:01.853Z,100914.39
2018-03-20T17:30:29.719Z,100915.84
2018-03-20T17:32:57.562Z,100921.45
2018-03-20T17:35:25.376Z,100923.16
2018-03-20T17:37:53.202Z,100930.48
2018-03-20T17:40:20.962Z,100937.50
2018-03-20T17:42:48.781Z,100941.16
2018-03-20T17:45:16.541Z,100946.55
2018-03-20T17:47:44.405Z,100950.74
2018-03-20T17:50:12.176Z,100957.22
2018-03-20T17:52:40.036Z,100958.85
2018-03-20T17:55:07.758Z,100960.75
2018-03-20T17:57:35.569Z,100964.59
2018-03-20T18:00:03.485Z,100971.87
2018-03-20T18:02:32.222Z,100982.44
2018-03-20T18:05:00.289Z,100978.66
2018-03-20T18:07:28.013Z,100988.17
2018-03-20T18:09:55.818Z,100985.84
2018-03-20T18:12:23.691Z,100990.51
2018-03-20T18:14:51.449Z,100992.16
2018-03-20T18:17:19.178Z,101002.97
2018-03-20T18:19:46.979Z,101007.45
2018-03-20T18:22:14.744Z,101009.80
2018-03-20T18:24:42.404Z,101011.97
2018-03-20T18:27:10.176Z,101014.89
2018-03-20T18:29:38.029Z,101021.39
2018-03-20T18:32:05.697Z,101022.35
2018-03-20T18:34:33.473Z,101029.78
2018-03-20T18:37:01.186Z,101034.62
2018-03-20T18:39:29.171Z,101031.59
2018-03-20T18:41:56.966Z,101035.22
2018-03-20T18:44:24.827Z,101044.56
2018-03-20T18:46:52.762Z,101051.73
2018-03-20T18:49:20.568Z,101048.25
2018-03-20T18:51:48.431Z,101051.77
2018-03-20T18:54:16.295Z,101060.34
2018-03-20T18:56:44.162Z,101060.05
2018-03-20T18:59:11.884Z,101066.23
2018-03-20T19:01:39.643Z,101061.97
2018-03-20T19:04:07.463Z,101075.00
2018-03-20T19:06:35.320Z,101070.47
2018-03-20T19:09:03.085Z,101079.97
2018-03-20T19:11:30.849Z,101074.55
2018-03-20T19:13:58.618Z,101083.63
2018-03-20T19:16:26.479Z,101086.31
2018-03-20T19:18:54.176Z,101091.50
2018-03-20T19:21:21.947Z,101095.05
2018-03-20T19:23:49.775Z,101097.22
2018-03-20T19:26:17.646Z,101101.36
2018-03-20T19:28:45.507Z,101108.81
2018-03-20T19:31:13.273Z,101114.04
2018-03-20T19:33:41.137Z,101113.70
2018-03-20T19:36:08.808Z,101117.26
2018-03-20T19:38:36.609Z,101121.42
2018-03-20T19:41:04.390Z,101121.47
2018-03-20T19:43:33.366Z,101127.24
2018-03-20T19:46:01.088Z,101130.09
2018-03-20T19:48:28.899Z,101136.80
2018-03-20T19:50:56.717Z,101140.20
2018-03-20T19:53:24.528Z,101140.99
2018-03-20T19:55:52.351Z,101141.60
2018-03-20T19:58:20.163Z,101149.77
2018-03-20T20:00:47.980Z,101149.27
2018-03-20T20:03:15.751Z,101157.42
2018-03-20T20:05:43.461Z,101162.95
2018-03-20T20:08:11.274Z,101164.23
2018-03-20T20:10:38.936Z,101163.23
2018-03-20T20:13:06.700Z,101174.77
2018-03-20T20:15:34.566Z,101166.86
2018-03-20T20:18:02.229Z,101174.44
2018-03-20T20:20:29.993Z,101175.07
2018-03-20T20:22:57.726Z,101176.84
2018-03-20T20:25:25.466Z,101183.23
2018-03-20T20:27:53.183Z,101183.44
2018-03-20T20:30:20.848Z,101188.66
2018-03-20T20:32:48.611Z,101191.35
2018-03-20T20:35:16.467Z,101192.55
2018-03-20T20:37:44.241Z,101192.58
2018-03-20T20:40:12.005Z,101194.23
2018-03-20T20:42:39.668Z,101205.14
2018-03-20T20:45:07.541Z,101203.48
2018-03-20T20:47:35.321Z,101202.47
2018-03-20T20:50:03.125Z,101210.75
2018-03-20T20:52:30.929Z,101217.42
2018-03-20T20:54:58.585Z,101224.48
2018-03-20T20:57:26.300Z,101220.91
2018-03-20T20:59:54.120Z,101225.67
2018-03-20T21:02:21.955Z,101225.95
2018-03-20T21:04:49.754Z,101230.78
2018-03-20T21:07:17.620Z,101224.48
2018-03-20T21:09:45.384Z,101234.51
2018-03-20T21:12:13.250Z,101227.14
2018-03-20T21:14:41.021Z,101237.32
2018-03-20T21:17:08.779Z,101242.80
2018-03-20T21:19:36.542Z,101240.04
2018-03-20T21:22:04.307Z,101232.67
2018-03-20T21:24:32.025Z,101237.14
2018-03-20T21:26:59.836Z,101240.44
2018-03-20T21:29:27.558Z,101240.77
2018-03-20T21:31:55.262Z,101234.51
2018-03-20T21:34:22.924Z,101237.08
2018-03-20T21:36:50.686Z,101238.11
2018-03-20T21:39:18.346Z,101243.52
2018-03-20T21:41:46.217Z,101241.17
2018-03-20T21:44:13.878Z,101232.58
2018-03-20T21:46:41.620Z,101239.58
2018-03-20T21:49:09.408Z,101239.70
2018-03-20T21:51:37.070Z,101248.73
2018-03-20T21:54:05.395Z,101242.67
2018-03-20T21:56:33.213Z,101242.69
2018-03-20T21:59:00.879Z,101244.13
2018-03-20T22:01:28.639Z,101251.56
2018-03-20T22:03:56.301Z,101252.27
2018-03-20T22:06:24.024Z,101254.53
2018-03-20T22:08:51.830Z,101250.05
2018-03-20T22:11:19.609Z,101256.36
2018-03-20T22:13:48.656Z,101252.52
2018-03-20T22:16:16.566Z,101259.12
2018-03-20T22:18:44.538Z,101254.88
2018-03-20T22:21:12.294Z,101265.30
2018-03-20T22:23:40.059Z,101267.70
2018-03-20T22:26:07.878Z,101273.66
2018-03-20T22:28:35.583Z,101275.55
2018-03-20T22:31:03.316Z,101281.54
2018-03-20T22:33:31.112Z,101282.14
2018-03-20T22:35:58.882Z,101286.11
2018-03-20T22:38:26.641Z,101286.19
2018-03-20T22:40:54.406Z,101287.84
2018-03-20T22:43:22.341Z,101298.45
2018-03-20T22:45:50.089Z,101297.09
2018-03-20T22:48:17.801Z,101300.42
2018-03-20T22:50:45.566Z,101306.14
2018-03-20T22:53:13.228Z,101310.53
2018-03-20T22:55:41.095Z,101319.28
2018-03-20T22:58:08.756Z,101322.04
2018-03-20T23:00:36.418Z,101324.62
2018-03-20T23:03:04.184Z,101324.64
2018-03-20T23:05:32.051Z,101325.93
2018-03-20T23:07:59.813Z,101325.09
2018-03-20T23:10:27.544Z,101330.80
2018-03-20T23:12:55.343Z,101328.73
2018-03-20T23:15:23.210Z,101335.44
2018-03-20T23:17:50.974Z,101341.62
2018-03-20T23:20:18.739Z,101335.80
2018-03-20T23:22:46.502Z,101340.98
2018-03-20T23:25:14.192Z,101339.02
2018-03-20T23:27:42.025Z,101338.91
2018-03-20T23:30:09.797Z,101337.95
2018-03-20T23:32:37.610Z,101340.66
2018-03-20T23:35:05.355Z,101347.67
2018-03-20T23:37:33.195Z,101354.32
2018-03-20T23:40:00.962Z,101349.27
2018-03-20T23:42:28.825Z,101343.66
2018-03-20T23:44:56.695Z,101353.97
2018-03-20T23:47:24.455Z,101356.91
2018-03-20T23:49:52.221Z,101352.95
2018-03-20T23:52:20.042Z,101357.02
2018-03-20T23:54:47.850Z,101358.92
2018-03-20T23:57:15.617Z,101351.51
2018-03-20T23:59:43.378Z,101360.21
